createdAt,value
2016-06-12T00:00:59.061Z,0
2016-06-12T00:01:59.064Z,0
2016-06-12T00:02:59.035Z,0
2016-06-12T00:03:59.023Z,0
2016-06-12T00:05:00.213Z,0
2016-06-12T00:05:59.060Z,0
2016-06-12T00:06:59.064Z,0
2016-06-12T00:07:59.051Z,0
2016-06-12T00:08:59.079Z,0
2016-06-12T00:09:59.121Z,0
2016-06-12T00:10:59.162Z,0
2016-06-12T00:11:59.219Z,0
2016-06-12T00:12:59.244Z,0
2016-06-12T00:13:59.269Z,0
2016-06-12T00:14:59.285Z,0
2016-06-12T00:15:59.288Z,0
2016-06-12T00:16:59.398Z,0
2016-06-12T00:17:59.336Z,0
2016-06-12T00:18:59.379Z,0
2016-06-12T00:19:59.949Z,0
2016-06-12T00:20:59.363Z,0
2016-06-12T00:21:59.262Z,0
2016-06-12T00:22:59.395Z,0
2016-06-12T00:23:59.385Z,0
2016-06-12T00:24:59.390Z,0
2016-06-12T00:25:59.380Z,0
2016-06-12T00:26:59.479Z,0
2016-06-12T00:27:59.405Z,0
2016-06-12T00:28:59.441Z,0
2016-06-12T00:29:59.382Z,0
2016-06-12T00:30:59.463Z,0
2016-06-12T00:31:59.483Z,0
2016-06-12T00:32:59.455Z,0
2016-06-12T00:33:59.396Z,0
2016-06-12T00:34:59.352Z,0
2016-06-12T00:35:59.840Z,0
2016-06-12T00:36:59.422Z,0
2016-06-12T00:37:59.440Z,0
2016-06-12T00:38:59.475Z,0
2016-06-12T00:39:59.463Z,0
2016-06-12T00:40:59.449Z,0
2016-06-12T00:41:59.516Z,0
2016-06-12T00:42:59.471Z,0
2016-06-12T00:43:59.459Z,0
2016-06-12T00:44:59.447Z,0
2016-06-12T00:45:59.481Z,0
2016-06-12T00:46:59.500Z,0
2016-06-12T00:47:59.471Z,0
2016-06-12T00:48:59.490Z,0
2016-06-12T00:49:59.572Z,0
2016-06-12T00:50:59.418Z,0
2016-06-12T00:51:59.563Z,0
2016-06-12T00:52:59.486Z,0
2016-06-12T00:53:59.506Z,0
2016-06-12T00:54:59.493Z,0
2016-06-12T00:55:59.464Z,0
2016-06-12T00:56:59.593Z,0
2016-06-12T00:57:59.502Z,0
2016-06-12T00:58:59.505Z,0
2016-06-12T00:59:59.508Z,0
2016-06-12T01:00:59.543Z,0
2016-06-12T01:01:59.358Z,0
2016-06-12T01:02:59.502Z,0
2016-06-12T01:03:59.506Z,0
2016-06-12T01:04:59.867Z,0
2016-06-12T01:05:59.526Z,0
2016-06-12T01:06:59.561Z,0
2016-06-12T01:07:59.549Z,0
2016-06-12T01:08:59.520Z,0
2016-06-12T01:09:59.539Z,0
2016-06-12T01:10:59.542Z,0
2016-06-12T01:11:59.529Z,0
2016-06-12T01:12:59.548Z,0
2016-06-12T01:13:59.520Z,0
2016-06-12T01:14:59.429Z,0
2016-06-12T01:15:59.543Z,0
2016-06-12T01:16:59.576Z,0
2016-06-12T01:17:59.549Z,0
2016-06-12T01:18:59.582Z,0
2016-06-12T01:19:59.819Z,0
2016-06-12T01:20:59.838Z,0
2016-06-12T01:21:59.716Z,0
2016-06-12T01:22:59.548Z,0
2016-06-12T01:23:59.582Z,0
2016-06-12T01:24:59.601Z,0
2016-06-12T01:25:59.604Z,0
2016-06-12T01:26:59.670Z,0
2016-06-12T01:27:59.579Z,0
2016-06-12T01:28:59.597Z,0
2016-06-12T01:29:59.585Z,0
2016-06-12T01:30:59.589Z,0
2016-06-12T01:31:59.638Z,0
2016-06-12T01:32:59.609Z,0
2016-06-12T01:33:59.598Z,0
2016-06-12T01:34:59.632Z,0
2016-06-12T01:35:59.604Z,0
2016-06-12T01:36:59.591Z,0
2016-06-12T01:37:59.610Z,0
2016-06-12T01:38:59.582Z,0
2016-06-12T01:39:59.460Z,0
2016-06-12T01:40:59.635Z,0
2016-06-12T01:41:59.637Z,0
2016-06-12T01:42:59.640Z,0
2016-06-12T01:43:59.597Z,0
2016-06-12T01:44:59.601Z,0
2016-06-12T01:45:59.619Z,0
2016-06-12T01:46:59.637Z,0
2016-06-12T01:47:59.656Z,0
2016-06-12T01:48:59.644Z,0
2016-06-12T01:49:59.694Z,0
2016-06-12T01:51:01.165Z,0
2016-06-12T01:51:59.762Z,0
2016-06-12T01:52:59.515Z,0
2016-06-12T01:53:59.674Z,0
2016-06-12T01:54:59.663Z,0
2016-06-12T01:55:59.665Z,0
2016-06-12T01:56:59.637Z,0
2016-06-12T01:57:59.656Z,0
2016-06-12T01:58:59.643Z,0
2016-06-12T01:59:59.693Z,0
2016-06-12T02:00:59.681Z,0
2016-06-12T02:01:59.653Z,0
2016-06-12T02:02:59.671Z,0
2016-06-12T02:03:59.721Z,0
2016-06-12T02:04:59.990Z,0
2016-06-12T02:05:59.555Z,0
2016-06-12T02:06:59.683Z,0
2016-06-12T02:07:59.655Z,0
2016-06-12T02:08:59.706Z,0
2016-06-12T02:09:59.537Z,0
2016-06-12T02:10:59.743Z,0
2016-06-12T02:11:59.762Z,0
2016-06-12T02:12:59.702Z,0
2016-06-12T02:13:59.721Z,0
2016-06-12T02:14:59.708Z,0
2016-06-12T02:15:59.555Z,0
2016-06-12T02:16:59.683Z,0
2016-06-12T02:17:59.592Z,0
2016-06-12T02:18:59.689Z,0
2016-06-12T02:19:59.598Z,0
2016-06-12T02:20:59.695Z,0
2016-06-12T02:22:00.230Z,0
2016-06-12T02:22:59.748Z,0
2016-06-12T02:23:59.782Z,0
2016-06-12T02:24:59.785Z,0
2016-06-12T02:25:59.727Z,0
2016-06-12T02:26:59.714Z,0
2016-06-12T02:27:59.747Z,0
2016-06-12T02:28:59.751Z,0
2016-06-12T02:29:59.739Z,0
2016-06-12T02:30:59.726Z,0
2016-06-12T02:31:59.776Z,0
2016-06-12T02:32:59.764Z,0
2016-06-12T02:33:59.579Z,0
2016-06-12T02:34:59.754Z,0
2016-06-12T02:36:00.335Z,0
2016-06-12T02:36:59.791Z,0
2016-06-12T02:37:59.732Z,0
2016-06-12T02:38:59.782Z,0
2016-06-12T02:39:59.785Z,0
2016-06-12T02:40:59.803Z,0
2016-06-12T02:41:59.760Z,0
2016-06-12T02:42:59.794Z,0
2016-06-12T02:43:59.610Z,0
2016-06-12T02:44:59.785Z,0
2016-06-12T02:45:59.788Z,0
2016-06-12T02:46:59.869Z,0
2016-06-12T02:47:59.762Z,4
2016-06-12T02:48:59.765Z,4
2016-06-12T02:49:59.800Z,4
2016-06-12T02:51:00.474Z,4
2016-06-12T02:51:59.791Z,0
2016-06-12T02:52:59.793Z,4
2016-06-12T02:53:59.780Z,4
2016-06-12T02:54:59.831Z,4
2016-06-12T02:55:59.803Z,4
2016-06-12T02:56:59.805Z,4
2016-06-12T02:57:59.809Z,4
2016-06-12T02:58:59.781Z,4
2016-06-12T02:59:59.831Z,8
2016-06-12T03:00:59.818Z,4
2016-06-12T03:01:59.852Z,8
2016-06-12T03:02:59.668Z,8
2016-06-12T03:03:59.827Z,8
2016-06-12T03:04:59.815Z,12
2016-06-12T03:06:00.239Z,12
2016-06-12T03:06:59.820Z,16
2016-06-12T03:07:59.824Z,20
2016-06-12T03:08:59.827Z,20
2016-06-12T03:09:59.845Z,24
2016-06-12T03:10:59.833Z,24
2016-06-12T03:11:59.914Z,28
2016-06-12T03:12:59.855Z,32
2016-06-12T03:13:59.842Z,32
2016-06-12T03:14:59.814Z,36
2016-06-12T03:15:59.865Z,36
2016-06-12T03:16:59.945Z,40
2016-06-12T03:17:59.854Z,44
2016-06-12T03:18:59.842Z,44
2016-06-12T03:19:59.892Z,44
2016-06-12T03:21:00.161Z,48
2016-06-12T03:21:59.898Z,56
2016-06-12T03:22:59.869Z,56
2016-06-12T03:23:59.842Z,64
2016-06-12T03:24:59.704Z,68
2016-06-12T03:25:59.879Z,76
2016-06-12T03:26:59.960Z,84
2016-06-12T03:27:59.901Z,88
2016-06-12T03:28:59.920Z,88
2016-06-12T03:29:59.877Z,88
2016-06-12T03:30:59.894Z,96
2016-06-12T03:31:59.897Z,96
2016-06-12T03:32:59.933Z,96
2016-06-12T03:33:59.904Z,96
2016-06-12T03:34:59.876Z,100
2016-06-12T03:36:00.675Z,104
2016-06-12T03:36:59.804Z,100
2016-06-12T03:37:59.901Z,104
2016-06-12T03:38:59.919Z,104
2016-06-12T03:39:59.938Z,108
2016-06-12T03:40:59.910Z,108
2016-06-12T03:41:59.945Z,108
2016-06-12T03:42:59.900Z,112
2016-06-12T03:43:59.919Z,120
2016-06-12T03:44:59.922Z,124
2016-06-12T03:45:59.925Z,128
2016-06-12T03:46:59.913Z,132
2016-06-12T03:47:59.916Z,132
2016-06-12T03:48:59.918Z,140
2016-06-12T03:49:59.906Z,144
2016-06-12T03:51:00.066Z,148
2016-06-12T03:51:59.834Z,156
2016-06-12T03:52:59.915Z,172
2016-06-12T03:53:59.934Z,192
2016-06-12T03:54:59.954Z,212
2016-06-12T03:55:59.971Z,228
2016-06-12T03:56:59.943Z,240
2016-06-12T03:57:59.977Z,248
2016-06-12T03:58:59.949Z,252
2016-06-12T03:59:59.953Z,260
2016-06-12T04:00:59.987Z,272
2016-06-12T04:01:59.958Z,296
2016-06-12T04:02:59.961Z,328
2016-06-12T04:03:59.949Z,360
2016-06-12T04:04:59.984Z,388
2016-06-12T04:05:59.862Z,388
2016-06-12T04:06:59.990Z,360
2016-06-12T04:07:59.977Z,324
2016-06-12T04:08:59.980Z,292
2016-06-12T04:10:00.014Z,268
2016-06-12T04:10:59.986Z,248
2016-06-12T04:11:59.989Z,236
2016-06-12T04:12:59.992Z,224
2016-06-12T04:13:59.996Z,220
2016-06-12T04:14:59.842Z,220
2016-06-12T04:16:00.033Z,220
2016-06-12T04:17:00.036Z,224
2016-06-12T04:17:59.992Z,228
2016-06-12T04:18:59.994Z,244
2016-06-12T04:19:59.998Z,264
2016-06-12T04:21:00.033Z,276
2016-06-12T04:22:00.020Z,292
2016-06-12T04:22:59.867Z,312
2016-06-12T04:24:00.010Z,344
2016-06-12T04:25:00.030Z,388
2016-06-12T04:26:00.016Z,428
2016-06-12T04:27:00.019Z,460
2016-06-12T04:28:00.038Z,484
2016-06-12T04:29:00.026Z,496
2016-06-12T04:30:00.029Z,496
2016-06-12T04:31:00.032Z,484
2016-06-12T04:32:00.034Z,472
2016-06-12T04:33:00.101Z,460
2016-06-12T04:34:00.041Z,448
2016-06-12T04:35:00.060Z,436
2016-06-12T04:36:00.969Z,428
2016-06-12T04:37:00.050Z,424
2016-06-12T04:38:00.070Z,424
2016-06-12T04:39:00.056Z,436
2016-06-12T04:40:00.075Z,452
2016-06-12T04:41:00.063Z,480
2016-06-12T04:42:00.066Z,524
2016-06-12T04:43:00.069Z,580
2016-06-12T04:44:00.072Z,652
2016-06-12T04:45:00.091Z,728
2016-06-12T04:46:00.078Z,836
2016-06-12T04:47:00.097Z,964
2016-06-12T04:48:00.100Z,1108
2016-06-12T04:49:00.087Z,1236
2016-06-12T04:50:00.075Z,1344
2016-06-12T04:51:00.640Z,1396
2016-06-12T04:52:01.082Z,1408
2016-06-12T04:53:00.099Z,1380
2016-06-12T04:54:00.134Z,1360
2016-06-12T04:55:00.106Z,1348
2016-06-12T04:56:00.078Z,1352
2016-06-12T04:57:00.096Z,1376
2016-06-12T04:58:00.100Z,1428
2016-06-12T04:59:00.118Z,1504
2016-06-12T05:00:00.121Z,1576
2016-06-12T05:01:00.109Z,1624
2016-06-12T05:02:00.127Z,1600
2016-06-12T05:03:00.130Z,1512
2016-06-12T05:04:00.118Z,1448
2016-06-12T05:05:00.152Z,1412
2016-06-12T05:06:00.953Z,1392
2016-06-12T05:07:00.315Z,1344
2016-06-12T05:08:00.145Z,1280
2016-06-12T05:09:00.148Z,1248
2016-06-12T05:10:00.137Z,1248
2016-06-12T05:11:00.140Z,1264
2016-06-12T05:12:00.126Z,1304
2016-06-12T05:13:00.130Z,1364
2016-06-12T05:14:00.149Z,1480
2016-06-12T05:15:00.121Z,1636
2016-06-12T05:15:59.999Z,1792
2016-06-12T05:17:00.205Z,1928
2016-06-12T05:18:00.192Z,2064
2016-06-12T05:19:00.040Z,2180
2016-06-12T05:20:00.167Z,2288
2016-06-12T05:21:00.482Z,2432
2016-06-12T05:22:00.361Z,2564
2016-06-12T05:23:00.177Z,2620
2016-06-12T05:24:00.226Z,2684
2016-06-12T05:25:00.167Z,2772
2016-06-12T05:26:00.185Z,2860
2016-06-12T05:27:00.173Z,2876
2016-06-12T05:28:00.067Z,2800
2016-06-12T05:29:00.210Z,2696
2016-06-12T05:30:00.198Z,2604
2016-06-12T05:31:00.217Z,2556
2016-06-12T05:32:00.204Z,2488
2016-06-12T05:33:00.223Z,2400
2016-06-12T05:34:00.210Z,2292
2016-06-12T05:35:00.214Z,2180
2016-06-12T05:36:00.247Z,2044
2016-06-12T05:37:00.220Z,1908
2016-06-12T05:38:00.223Z,1796
2016-06-12T05:39:00.257Z,1692
2016-06-12T05:40:00.229Z,1628
2016-06-12T05:41:00.247Z,1580
2016-06-12T05:42:00.250Z,1532
2016-06-12T05:43:00.269Z,1504
2016-06-12T05:44:00.256Z,1492
2016-06-12T05:45:00.228Z,1468
2016-06-12T05:46:00.247Z,1456
2016-06-12T05:47:00.312Z,1480
2016-06-12T05:48:00.253Z,1520
2016-06-12T05:49:00.240Z,1568
2016-06-12T05:50:00.243Z,1672
2016-06-12T05:51:00.607Z,1860
2016-06-12T05:52:00.703Z,2104
2016-06-12T05:53:00.316Z,2328
2016-06-12T05:54:00.272Z,2548
2016-06-12T05:55:00.259Z,2804
2016-06-12T05:56:00.278Z,3016
2016-06-12T05:57:00.265Z,3104
2016-06-12T05:58:00.269Z,3056
2016-06-12T05:59:00.302Z,2912
2016-06-12T06:00:00.118Z,2780
2016-06-12T06:01:00.325Z,2696
2016-06-12T06:02:00.311Z,2756
2016-06-12T06:03:00.128Z,2868
2016-06-12T06:04:00.146Z,2972
2016-06-12T06:05:00.337Z,3060
2016-06-12T06:06:00.339Z,3128
2016-06-12T06:07:00.343Z,3164
2016-06-12T06:08:00.330Z,3180
2016-06-12T06:09:00.349Z,3168
2016-06-12T06:10:00.321Z,3152
2016-06-12T06:11:00.324Z,3232
2016-06-12T06:12:00.358Z,3432
2016-06-12T06:13:00.330Z,3688
2016-06-12T06:14:00.333Z,3848
2016-06-12T06:15:00.352Z,3820
2016-06-12T06:16:00.339Z,3604
2016-06-12T06:17:00.389Z,3236
2016-06-12T06:18:00.330Z,2848
2016-06-12T06:19:00.364Z,2520
2016-06-12T06:20:00.367Z,2288
2016-06-12T06:21:00.573Z,2164
2016-06-12T06:22:00.373Z,2096
2016-06-12T06:23:00.392Z,2072
2016-06-12T06:24:00.364Z,2096
2016-06-12T06:25:00.367Z,2168
2016-06-12T06:26:00.371Z,2236
2016-06-12T06:27:00.451Z,2268
2016-06-12T06:28:00.391Z,2288
2016-06-12T06:29:00.395Z,2352
2016-06-12T06:30:00.414Z,2456
2016-06-12T06:31:00.198Z,2592
2016-06-12T06:32:00.435Z,2756
2016-06-12T06:33:00.407Z,2944
2016-06-12T06:34:00.426Z,3164
2016-06-12T06:35:00.412Z,3368
2016-06-12T06:36:01.823Z,3548
2016-06-12T06:37:00.451Z,3700
2016-06-12T06:38:00.422Z,3900
2016-06-12T06:39:00.457Z,4096
2016-06-12T06:40:00.414Z,4260
2016-06-12T06:41:00.448Z,4400
2016-06-12T06:42:00.434Z,4584
2016-06-12T06:43:00.423Z,4816
2016-06-12T06:44:00.284Z,5060
2016-06-12T06:45:00.429Z,5268
2016-06-12T06:46:00.416Z,5404
2016-06-12T06:47:00.435Z,5416
2016-06-12T06:48:00.485Z,5376
2016-06-12T06:49:00.440Z,5376
2016-06-12T06:50:00.459Z,5436
2016-06-12T06:51:00.431Z,5532
2016-06-12T06:52:01.778Z,5640
2016-06-12T06:53:00.453Z,5696
2016-06-12T06:54:00.440Z,5768
2016-06-12T06:55:00.318Z,5888
2016-06-12T06:56:00.477Z,6064
2016-06-12T06:57:00.544Z,6276
2016-06-12T06:58:00.500Z,6516
2016-06-12T06:59:00.471Z,6744
2016-06-12T07:00:00.490Z,6928
2016-06-12T07:01:00.509Z,7036
2016-06-12T07:02:00.481Z,7108
2016-06-12T07:03:00.343Z,7188
2016-06-12T07:04:00.518Z,7276
2016-06-12T07:05:00.490Z,7396
2016-06-12T07:06:00.508Z,7512
2016-06-12T07:07:00.403Z,7664
2016-06-12T07:08:00.562Z,7844
2016-06-12T07:09:00.534Z,8000
2016-06-12T07:10:00.520Z,8112
2016-06-12T07:11:00.540Z,8184
2016-06-12T07:12:00.606Z,8164
2016-06-12T07:13:00.546Z,8068
2016-06-12T07:14:00.532Z,7968
2016-06-12T07:15:00.583Z,7700
2016-06-12T07:16:00.555Z,7464
2016-06-12T07:17:00.386Z,7280
2016-06-12T07:18:00.561Z,7108
2016-06-12T07:19:00.580Z,6916
2016-06-12T07:20:00.614Z,6768
2016-06-12T07:21:00.554Z,6640
2016-06-12T07:22:00.636Z,6488
2016-06-12T07:23:00.624Z,6320
2016-06-12T07:24:00.596Z,6208
2016-06-12T07:25:00.566Z,6116
2016-06-12T07:26:00.617Z,6040
2016-06-12T07:27:00.588Z,6004
2016-06-12T07:28:00.622Z,5988
2016-06-12T07:29:00.611Z,5972
2016-06-12T07:30:00.598Z,5988
2016-06-12T07:31:00.632Z,6040
2016-06-12T07:32:00.635Z,6092
2016-06-12T07:33:00.654Z,6112
2016-06-12T07:34:00.657Z,6140
2016-06-12T07:35:00.644Z,6196
2016-06-12T07:36:00.632Z,6288
2016-06-12T07:37:01.463Z,6392
2016-06-12T07:38:00.670Z,6500
2016-06-12T07:39:00.626Z,6556
2016-06-12T07:40:00.707Z,6508
2016-06-12T07:41:00.632Z,6440
2016-06-12T07:42:00.713Z,6324
2016-06-12T07:43:00.685Z,6200
2016-06-12T07:44:00.704Z,6052
2016-06-12T07:45:00.691Z,5912
2016-06-12T07:46:00.678Z,5792
2016-06-12T07:47:00.759Z,5628
2016-06-12T07:48:00.684Z,5464
2016-06-12T07:49:00.719Z,5368
2016-06-12T07:50:00.534Z,5260
2016-06-12T07:51:00.709Z,5208
2016-06-12T07:52:01.290Z,5240
2016-06-12T07:53:00.747Z,5292
2016-06-12T07:54:00.719Z,5384
2016-06-12T07:55:00.753Z,5352
2016-06-12T07:56:00.584Z,5244
2016-06-12T07:57:00.775Z,5080
2016-06-12T07:58:00.731Z,4980
2016-06-12T07:59:00.750Z,4928
2016-06-12T08:00:00.737Z,4960
2016-06-12T08:01:00.771Z,5016
2016-06-12T08:02:00.822Z,5084
2016-06-12T08:03:00.730Z,5164
2016-06-12T08:04:00.734Z,5236
2016-06-12T08:05:00.752Z,5304
2016-06-12T08:06:00.786Z,5300
2016-06-12T08:07:01.056Z,5188
2016-06-12T08:08:00.761Z,4984
2016-06-12T08:09:00.812Z,4748
2016-06-12T08:10:00.768Z,4580
2016-06-12T08:11:00.771Z,4524
2016-06-12T08:12:00.805Z,4564
2016-06-12T08:13:00.808Z,4652
2016-06-12T08:14:00.780Z,4672
2016-06-12T08:15:00.783Z,4576
2016-06-12T08:16:00.833Z,4460
2016-06-12T08:17:00.898Z,4436
2016-06-12T08:18:00.823Z,4484
2016-06-12T08:19:00.827Z,4628
2016-06-12T08:20:00.845Z,4796
2016-06-12T08:21:00.849Z,4992
2016-06-12T08:22:00.774Z,5228
2016-06-12T08:23:00.839Z,5500
2016-06-12T08:24:00.858Z,5800
2016-06-12T08:25:00.845Z,6068
2016-06-12T08:26:00.865Z,6300
2016-06-12T08:27:00.929Z,6484
2016-06-12T08:28:00.870Z,6624
2016-06-12T08:29:00.874Z,6680
2016-06-12T08:30:00.860Z,6616
2016-06-12T08:31:00.880Z,6568
2016-06-12T08:32:00.913Z,6572
2016-06-12T08:33:00.885Z,6548
2016-06-12T08:34:00.889Z,6552
2016-06-12T08:35:00.719Z,6624
2016-06-12T08:36:00.926Z,6740
2016-06-12T08:37:01.304Z,6852
2016-06-12T08:38:00.901Z,6860
2016-06-12T08:39:00.904Z,6796
2016-06-12T08:40:00.922Z,6680
2016-06-12T08:41:00.925Z,6412
2016-06-12T08:42:00.992Z,6112
2016-06-12T08:43:00.901Z,5988
2016-06-12T08:44:00.934Z,5976
2016-06-12T08:45:00.798Z,6084
2016-06-12T08:46:00.940Z,6264
2016-06-12T08:47:01.022Z,6432
2016-06-12T08:48:00.932Z,6656
2016-06-12T08:49:00.935Z,6852
2016-06-12T08:50:00.969Z,7020
2016-06-12T08:51:00.972Z,7176
2016-06-12T08:52:01.069Z,7312
2016-06-12T08:53:00.806Z,7540
2016-06-12T08:54:00.966Z,7680
2016-06-12T08:55:00.969Z,7612
2016-06-12T08:56:01.034Z,7620
2016-06-12T08:57:01.038Z,7724
2016-06-12T08:58:00.994Z,7880
2016-06-12T08:59:00.997Z,7976
2016-06-12T09:00:00.999Z,7924
2016-06-12T09:01:01.019Z,7768
2016-06-12T09:02:01.100Z,7536
2016-06-12T09:03:01.009Z,7320
2016-06-12T09:04:00.996Z,6940
2016-06-12T09:05:01.015Z,6532
2016-06-12T09:06:01.018Z,6680
2016-06-12T09:07:01.099Z,6620
2016-06-12T09:08:01.041Z,6572
2016-06-12T09:09:01.043Z,6504
2016-06-12T09:10:01.031Z,6496
2016-06-12T09:11:01.268Z,6636
2016-06-12T09:12:01.083Z,6796
2016-06-12T09:13:01.086Z,7016
2016-06-12T09:14:01.060Z,7188
2016-06-12T09:15:01.103Z,7584
2016-06-12T09:16:01.162Z,7896
2016-06-12T09:17:01.316Z,7884
2016-06-12T09:18:01.235Z,7504
2016-06-12T09:19:01.293Z,6988
2016-06-12T09:20:01.171Z,6908
2016-06-12T09:21:01.344Z,6848
2016-06-12T09:22:01.581Z,6624
2016-06-12T09:23:01.958Z,6748
2016-06-12T09:24:01.397Z,6324
2016-06-12T09:25:01.374Z,5336
2016-06-12T09:26:01.397Z,4788
2016-06-12T09:27:01.437Z,4632
2016-06-12T09:28:01.414Z,4296
2016-06-12T09:29:01.422Z,3940
2016-06-12T09:30:01.474Z,3572
2016-06-12T09:31:01.494Z,3556
2016-06-12T09:32:01.453Z,3668
2016-06-12T09:33:01.473Z,3664
2016-06-12T09:34:01.446Z,3872
2016-06-12T09:35:01.513Z,3768
2016-06-12T09:36:01.329Z,3960
2016-06-12T09:37:02.474Z,3884
2016-06-12T09:38:01.508Z,4220
2016-06-12T09:39:01.466Z,4508
2016-06-12T09:40:01.469Z,4648
2016-06-12T09:41:01.504Z,4864
2016-06-12T09:42:01.523Z,5288
2016-06-12T09:43:01.511Z,5808
2016-06-12T09:44:01.530Z,6300
2016-06-12T09:45:01.518Z,6964
2016-06-12T09:46:01.349Z,7604
2016-06-12T09:47:01.445Z,8408
2016-06-12T09:48:01.542Z,9384
2016-06-12T09:49:01.576Z,9976
2016-06-12T09:50:01.548Z,10632
2016-06-12T09:51:01.552Z,11088
2016-06-12T09:52:02.023Z,11444
2016-06-12T09:53:01.557Z,11816
2016-06-12T09:54:01.546Z,12428
2016-06-12T09:55:01.580Z,13024
2016-06-12T09:56:01.597Z,13532
2016-06-12T09:57:01.647Z,13428
2016-06-12T09:58:01.573Z,13412
2016-06-12T09:59:01.561Z,13340
2016-06-12T10:00:01.610Z,13200
2016-06-12T10:01:01.582Z,13092
2016-06-12T10:02:01.585Z,13080
2016-06-12T10:03:01.619Z,13172
2016-06-12T10:04:01.591Z,13132
2016-06-12T10:05:01.610Z,13064
2016-06-12T10:06:01.567Z,13176
2016-06-12T10:07:01.647Z,13312
2016-06-12T10:08:01.634Z,13360
2016-06-12T10:09:01.607Z,13284
2016-06-12T10:10:01.626Z,13228
2016-06-12T10:11:01.472Z,12964
2016-06-12T10:12:01.632Z,12556
2016-06-12T10:13:01.635Z,12032
2016-06-12T10:14:01.638Z,11492
2016-06-12T10:15:01.672Z,11064
2016-06-12T10:16:01.691Z,10648
2016-06-12T10:17:01.694Z,10392
2016-06-12T10:18:01.681Z,10268
2016-06-12T10:19:01.685Z,10216
2016-06-12T10:20:01.687Z,10464
2016-06-12T10:21:01.706Z,10680
2016-06-12T10:22:01.678Z,11084
2016-06-12T10:23:01.822Z,11740
2016-06-12T10:24:01.747Z,11492
2016-06-12T10:25:01.719Z,11268
2016-06-12T10:26:01.737Z,11308
2016-06-12T10:27:01.772Z,12056
2016-06-12T10:28:01.728Z,12748
2016-06-12T10:29:01.715Z,12628
2016-06-12T10:30:01.749Z,12104
2016-06-12T10:31:01.769Z,12336
2016-06-12T10:32:01.803Z,12044
2016-06-12T10:33:01.759Z,11824
2016-06-12T10:34:01.761Z,11172
2016-06-12T10:35:01.781Z,10848
2016-06-12T10:36:01.784Z,10772
2016-06-12T10:37:01.803Z,10920
2016-06-12T10:38:01.977Z,10900
2016-06-12T10:39:01.793Z,10924
2016-06-12T10:40:01.812Z,11780
2016-06-12T10:41:01.783Z,12428
2016-06-12T10:42:01.818Z,12644
2016-06-12T10:43:01.821Z,13348
2016-06-12T10:44:01.824Z,13608
2016-06-12T10:45:01.827Z,13912
2016-06-12T10:46:01.861Z,14028
2016-06-12T10:47:01.879Z,14104
2016-06-12T10:48:01.852Z,13340
2016-06-12T10:49:01.840Z,13092
2016-06-12T10:50:01.888Z,11848
2016-06-12T10:51:01.877Z,11900
2016-06-12T10:52:01.895Z,11380
2016-06-12T10:53:02.788Z,11132
2016-06-12T10:54:01.726Z,11352
2016-06-12T10:55:01.889Z,11404
2016-06-12T10:56:01.889Z,11480
2016-06-12T10:57:01.861Z,11300
2016-06-12T10:58:01.910Z,11012
2016-06-12T10:59:01.899Z,10796
2016-06-12T11:00:01.916Z,10972
2016-06-12T11:01:01.919Z,11176
2016-06-12T11:02:02.016Z,11496
2016-06-12T11:03:01.942Z,12136
2016-06-12T11:04:01.976Z,13028
2016-06-12T11:05:01.978Z,14116
2016-06-12T11:06:01.967Z,13580
2016-06-12T11:07:02.032Z,12900
2016-06-12T11:08:01.690Z,10824
2016-06-12T11:09:01.976Z,8984
2016-06-12T11:10:01.963Z,8128
2016-06-12T11:11:02.013Z,6504
2016-06-12T11:12:01.985Z,5492
2016-06-12T11:13:02.050Z,4976
2016-06-12T11:14:02.022Z,4688
2016-06-12T11:15:05.013Z,4360
2016-06-12T11:16:02.045Z,4084
2016-06-12T11:17:02.079Z,3928
2016-06-12T11:18:01.894Z,3724
2016-06-12T11:19:02.053Z,3700
2016-06-12T11:20:02.041Z,3968
2016-06-12T11:21:02.060Z,4428
2016-06-12T11:22:02.063Z,4844
2016-06-12T11:23:02.284Z,5064
2016-06-12T11:24:02.069Z,5348
2016-06-12T11:25:02.087Z,6060
2016-06-12T11:26:02.075Z,6972
2016-06-12T11:27:02.171Z,8200
2016-06-12T11:28:02.127Z,9648
2016-06-12T11:29:02.302Z,10648
2016-06-12T11:30:02.088Z,11040
2016-06-12T11:31:02.121Z,11232
2016-06-12T11:32:02.186Z,11892
2016-06-12T11:33:02.159Z,13092
2016-06-12T11:34:02.115Z,13924
2016-06-12T11:35:02.134Z,14344
2016-06-12T11:36:02.152Z,14456
2016-06-12T11:37:02.155Z,14736
2016-06-12T11:38:01.894Z,14984
2016-06-12T11:39:02.162Z,14960
2016-06-12T11:40:02.197Z,15404
2016-06-12T11:41:02.200Z,15488
2016-06-12T11:42:02.202Z,15752
2016-06-12T11:43:02.236Z,15812
2016-06-12T11:44:02.223Z,15228
2016-06-12T11:45:02.195Z,15236
2016-06-12T11:46:02.058Z,14928
2016-06-12T11:47:02.218Z,15072
2016-06-12T11:48:02.221Z,15236
2016-06-12T11:49:02.239Z,14808
2016-06-12T11:50:02.195Z,13168
2016-06-12T11:51:02.214Z,12828
2016-06-12T11:52:02.280Z,12940
2016-06-12T11:53:02.470Z,13164
2016-06-12T11:54:02.287Z,13496
2016-06-12T11:55:02.273Z,13948
2016-06-12T11:56:02.246Z,15600
2016-06-12T11:57:02.327Z,15040
2016-06-12T11:58:02.282Z,15004
2016-06-12T11:59:02.301Z,15704
2016-06-12T12:00:02.305Z,15016
2016-06-12T12:01:02.292Z,15256
2016-06-12T12:02:02.311Z,15596
2016-06-12T12:03:02.314Z,14952
2016-06-12T12:04:02.301Z,15016
2016-06-12T12:05:02.335Z,15008
2016-06-12T12:06:02.323Z,15036
2016-06-12T12:07:02.326Z,15780
2016-06-12T12:08:03.516Z,15088
2016-06-12T12:09:02.316Z,14932
2016-06-12T12:10:02.381Z,14440
2016-06-12T12:11:02.354Z,14112
2016-06-12T12:12:02.466Z,14176
2016-06-12T12:13:02.359Z,14488
2016-06-12T12:14:02.363Z,14764
2016-06-12T12:15:02.366Z,14944
2016-06-12T12:16:02.432Z,15064
2016-06-12T12:17:02.451Z,16096
2016-06-12T12:18:02.391Z,16832
2016-06-12T12:19:02.394Z,16992
2016-06-12T12:20:02.413Z,17280
2016-06-12T12:21:02.432Z,17312
2016-06-12T12:22:02.482Z,17088
2016-06-12T12:23:02.704Z,16896
2016-06-12T12:24:02.457Z,15356
2016-06-12T12:25:02.427Z,15332
2016-06-12T12:26:02.447Z,16896
2016-06-12T12:27:02.481Z,16928
2016-06-12T12:28:02.468Z,16384
2016-06-12T12:29:02.487Z,15444
2016-06-12T12:30:02.475Z,14008
2016-06-12T12:31:02.509Z,13420
2016-06-12T12:32:02.482Z,12672
2016-06-12T12:33:02.499Z,11564
2016-06-12T12:34:02.503Z,10844
2016-06-12T12:35:02.522Z,9892
2016-06-12T12:36:02.508Z,9624
2016-06-12T12:37:02.558Z,10192
2016-06-12T12:38:03.374Z,10496
2016-06-12T12:39:02.549Z,10224
2016-06-12T12:40:02.521Z,9672
2016-06-12T12:41:02.571Z,8960
2016-06-12T12:42:02.604Z,8164
2016-06-12T12:43:02.562Z,7024
2016-06-12T12:44:02.424Z,6048
2016-06-12T12:45:02.600Z,4852
2016-06-12T12:46:02.571Z,3996
2016-06-12T12:47:02.636Z,3408
2016-06-12T12:48:02.592Z,3152
2016-06-12T12:49:02.611Z,3324
2016-06-12T12:50:02.630Z,3752
2016-06-12T12:51:02.602Z,4160
2016-06-12T12:52:02.746Z,4580
2016-06-12T12:53:02.843Z,5064
2016-06-12T12:54:02.939Z,5560
2016-06-12T12:55:02.645Z,6032
2016-06-12T12:56:02.648Z,6492
2016-06-12T12:57:02.714Z,6840
2016-06-12T12:58:02.686Z,7132
2016-06-12T12:59:02.657Z,7284
2016-06-12T13:00:02.536Z,7116
2016-06-12T13:01:02.679Z,6916
2016-06-12T13:02:05.761Z,6684
2016-06-12T13:03:02.670Z,6320
2016-06-12T13:04:02.891Z,5872
2016-06-12T13:05:02.707Z,5340
2016-06-12T13:06:02.539Z,4860
2016-06-12T13:07:02.556Z,4556
2016-06-12T13:08:04.560Z,4492
2016-06-12T13:09:03.157Z,4556
2016-06-12T13:10:02.723Z,4712
2016-06-12T13:11:02.726Z,4980
2016-06-12T13:12:02.730Z,5412
2016-06-12T13:13:05.747Z,6036
2016-06-12T13:14:02.750Z,6628
2016-06-12T13:15:02.738Z,7096
2016-06-12T13:16:02.756Z,7472
2016-06-12T13:17:02.666Z,7780
2016-06-12T13:18:02.763Z,8032
2016-06-12T13:19:05.782Z,8264
2016-06-12T13:20:02.769Z,8356
2016-06-12T13:21:02.772Z,8304
2016-06-12T13:22:02.900Z,8164
2016-06-12T13:23:03.138Z,8032
2016-06-12T13:24:02.703Z,7948
2016-06-12T13:25:02.801Z,7924
2016-06-12T13:26:02.787Z,8048
2016-06-12T13:27:02.587Z,8368
2016-06-12T13:28:02.826Z,8640
2016-06-12T13:29:02.828Z,8988
2016-06-12T13:30:02.690Z,9408
2016-06-12T13:31:02.835Z,9908
2016-06-12T13:32:02.821Z,10456
2016-06-12T13:33:02.824Z,10936
2016-06-12T13:34:02.828Z,11316
2016-06-12T13:35:02.878Z,11532
2016-06-12T13:36:02.864Z,11540
2016-06-12T13:37:02.853Z,11376